Terminal Aerodrome Forecast
Issued by NWS Cleveland, OH

Home | Current Version | Previous Version | Text Only | Print | Product List | Glossary On
Versions: 1 2 3 4 5 6 7 8 9 10 11 12 13 14 15 16 17
000
FTUS41 KCLE 200539
TAFERI
TAF
KERI 200539Z 2006/2106 28016G28KT P6SM SCT025 OVC035
      TEMPO 2008/2012 3SM -SHSN BKN015 OVC025
     FM201300 23015G25KT P6SM SCT025 OVC035
     FM202200 20018G30KT P6SM FEW120 SCT250=

USA.gov is the U.S. government's official web portal to all federal, state and local government web resources and services.